Time;durP1;ratioP1;P1;durP2;ratioP2;P2;SDS_P1;SDS_P2;PMS_P1;PMS_P2;Temp;Humidity;BMP_temperature;BMP_pressure;BME280_temperature;BME280_humidity;BME280_pressure;Samples;Min_cycle;Max_cycle;Signal;HPM_P1;HPM_P2
2021/12/28 00:02:05;;;;;;;54.15;17.92;;;-3274.60;74.60;;;;;;5080582;28;20007;-92
2021/12/28 00:04:31;;;;;;;38.80;16.03;;;-3274.60;74.70;;;;;;5080565;28;20059;-91
2021/12/28 00:06:57;;;;;;;51.33;17.57;;;-3274.60;74.80;;;;;;5079557;28;20036;-91
2021/12/28 00:09:22;;;;;;;;;;;-3274.70;74.80;;;;;;5079483;28;20390;-92
2021/12/28 00:11:48;;;;;;;37.63;14.77;;;-3274.70;74.80;;;;;;5081498;28;19915;-91
2021/12/28 00:14:19;;;;;;;;;;;-3274.70;74.70;;;;;;5081985;28;20051;-91
2021/12/28 00:19:28;;;;;;;57.67;17.87;;;-3274.70;74.70;;;;;;5065922;28;20042;-91
2021/12/28 00:21:54;;;;;;;;;;;-3274.70;74.80;;;;;;5082788;28;20127;-92
2021/12/28 00:24:20;;;;;;;38.37;13.50;;;-3274.70;75.00;;;;;;5081048;28;19908;-91
2021/12/28 00:26:45;;;;;;;;;;;-3274.70;74.90;;;;;;5081797;28;20087;-92
2021/12/28 00:29:11;;;;;;;39.23;14.13;;;-3274.70;75.00;;;;;;5080184;28;19915;-91
2021/12/28 00:31:36;;;;;;;;;;;-3274.70;74.80;;;;;;5080772;28;20020;-91
2021/12/28 00:34:02;;;;;;;52.70;17.50;;;-3274.70;75.00;;;;;;5077619;28;19931;-91
2021/12/28 00:36:28;;;;;;;;;;;-3274.70;74.80;;;;;;5080322;28;20027;-92
2021/12/28 00:38:53;;;;;;;46.57;17.77;;;-3274.70;75.00;;;;;;5080193;28;19972;-92
2021/12/28 00:41:20;;;;;;;26.77;9.20;;;-3274.70;74.90;;;;;;5081293;28;20039;-92
2021/12/28 00:43:46;;;;;;;36.93;15.10;;;-3274.70;75.00;;;;;;5081201;28;20028;-93
2021/12/28 00:46:13;;;;;;;;;;;-3274.70;75.10;;;;;;5084438;28;20025;-93
2021/12/28 00:48:39;;;;;;;38.40;16.60;;;-3274.80;75.20;;;;;;5088424;28;19892;-93
2021/12/28 00:51:05;;;;;;;;;;;-3274.80;75.00;;;;;;5089441;28;20033;-92
2021/12/28 00:53:31;;;;;;;28.80;12.67;;;-3274.80;75.10;;;;;;5087383;28;19908;-93
2021/12/28 00:56:04;;;;;;;56.07;19.60;;;-3274.80;74.90;;;;;;5091707;28;20024;-92
2021/12/28 00:58:31;;;;;;;54.90;18.00;;;-3274.80;75.00;;;;;;5088699;28;20032;-93
2021/12/28 01:00:57;;;;;;;50.70;19.00;;;-3274.80;75.10;;;;;;5088331;28;20024;-92
2021/12/28 01:03:26;;;;;;;;;;;-3274.90;75.10;;;;;;5094346;28;20037;-92
2021/12/28 01:05:51;;;;;;;27.50;10.93;;;-3274.90;75.20;;;;;;5097545;28;19919;-91
2021/12/28 01:08:17;;;;;;;;;;;-3275.00;74.90;;;;;;5097709;28;20012;-92
2021/12/28 01:10:50;;;;;;;47.47;18.60;;;-3275.00;75.00;;;;;;5097326;28;19932;-92
2021/12/28 01:13:17;;;;;;;43.97;14.87;;;-3275.00;74.90;;;;;;5096244;28;20072;-92
2021/12/28 01:15:43;;;;;;;53.03;19.53;;;-3275.00;75.00;;;;;;5097034;28;20092;-92
2021/12/28 01:18:09;;;;;;;58.00;20.43;;;-3275.00;75.00;;;;;;5090596;28;20028;-92
2021/12/28 01:20:35;;;;;;;45.57;15.30;;;-3275.00;75.10;;;;;;5083733;28;20038;-92
2021/12/28 01:23:01;;;;;;;;;;;-3275.00;75.10;;;;;;5081612;28;20085;-92
2021/12/28 01:25:27;;;;;;;55.80;19.30;;;-3275.00;75.10;;;;;;5081189;28;19912;-93
2021/12/28 01:27:53;;;;;;;;;;;-3275.10;74.90;;;;;;5081922;28;20028;-93
2021/12/28 01:30:20;;;;;;;49.90;16.90;;;-3275.10;75.00;;;;;;5081832;28;19897;-92
2021/12/28 01:32:48;;;;;;;47.73;18.73;;;-3275.10;74.80;;;;;;5081054;28;20025;-93
2021/12/28 01:35:15;;;;;;;36.03;15.53;;;-3275.10;74.90;;;;;;5073309;28;20016;-92
2021/12/28 01:37:42;;;;;;;50.47;19.13;;;-3275.10;75.00;;;;;;5063067;28;20029;-92
2021/12/28 01:40:10;;;;;;;47.07;15.33;;;-3275.10;75.00;;;;;;5079327;28;20032;-92
2021/12/28 01:43:07;;;;;;;53.43;19.00;;;-3275.10;75.10;;;;;;5079439;28;20028;-91
2021/12/28 01:45:36;;;;;;;41.25;15.80;;;-3275.10;75.00;;;;;;5060087;28;20108;-92
2021/12/28 01:48:13;;;;;;;51.20;17.47;;;-3275.10;75.00;;;;;;5078087;28;20028;-92
2021/12/28 01:50:46;;;;;;;38.03;15.48;;;-3275.10;75.00;;;;;;5081292;28;20025;-92
2021/12/28 01:53:13;;;;;;;47.07;18.17;;;-3275.10;75.00;;;;;;5079586;28;20056;-92
2021/12/28 01:55:41;;;;;;;31.43;10.20;;;-3275.00;75.00;;;;;;5078373;28;20024;-88
2021/12/28 01:58:07;;;;;;;33.70;16.20;;;-3275.10;75.10;;;;;;5078049;28;20035;-92
2021/12/28 02:00:32;;;;;;;;;;;-3275.10;75.10;;;;;;5079904;28;20029;-92
2021/12/28 02:02:59;;;;;;;29.30;13.47;;;-3275.10;75.10;;;;;;5078858;28;19912;-91
2021/12/28 02:05:25;;;;;;;43.27;16.07;;;-3275.10;74.90;;;;;;5077705;28;20455;-93
2021/12/28 02:07:51;;;;;;;55.97;18.33;;;-3275.10;75.00;;;;;;5078322;28;20025;-93
2021/12/28 02:10:17;;;;;;;;;;;-3275.00;75.00;;;;;;5078264;28;20098;-92
2021/12/28 02:12:46;;;;;;;38.17;16.20;;;-3275.00;75.20;;;;;;5077809;28;19915;-92
2021/12/28 02:15:14;;;;;;;47.67;17.70;;;-3275.10;75.00;;;;;;5078128;28;20112;-93
2021/12/28 02:17:40;;;;;;;46.43;18.43;;;-3275.00;75.10;;;;;;5078463;28;20074;-91
2021/12/28 02:20:15;;;;;;;47.23;17.03;;;-3275.10;75.20;;;;;;5079278;28;20032;-91
2021/12/28 02:22:41;;;;;;;36.47;11.77;;;-3275.10;75.20;;;;;;5072767;28;20021;-92
2021/12/28 02:25:09;;;;;;;46.13;16.57;;;-3275.10;75.20;;;;;;5078522;28;20035;-91
2021/12/28 02:27:34;;;;;;;43.80;16.47;;;-3275.10;75.30;;;;;;5077720;28;20029;-92
2021/12/28 02:30:01;;;;;;;;;;;-3275.10;75.30;;;;;;5078745;28;20549;-92
2021/12/28 02:32:29;;;;;;;44.17;17.07;;;-3275.20;75.30;;;;;;5077357;28;19916;-91
2021/12/28 02:34:55;;;;;;;53.17;18.73;;;-3275.20;75.00;;;;;;5077913;28;20017;-92
2021/12/28 02:37:22;;;;;;;47.33;17.80;;;-3275.10;75.10;;;;;;5081429;28;20021;-93
2021/12/28 02:39:48;;;;;;;33.13;12.87;;;-3275.10;75.20;;;;;;5077585;28;20035;-93
2021/12/28 02:42:19;;;;;;;;;;;-3275.10;75.30;;;;;;5078604;28;20123;-92
2021/12/28 02:44:46;;;;;;;40.17;16.80;;;-3275.10;75.30;;;;;;5078084;28;19908;-93
2021/12/28 02:47:17;;;;;;;26.30;9.87;;;-3275.20;75.10;;;;;;5078364;28;20021;-93
2021/12/28 02:49:43;;;;;;;45.03;17.27;;;-3275.20;75.10;;;;;;5077845;28;20029;-93
2021/12/28 02:52:09;;;;;;;;;;;-3275.20;75.20;;;;;;5078263;28;20028;-93
2021/12/28 02:54:38;;;;;;;46.83;15.55;;;-3275.20;75.20;;;;;;5077975;28;19931;-92
2021/12/28 02:57:04;;;;;;;26.47;11.33;;;-3275.20;75.00;;;;;;5080927;28;20166;-91
2021/12/28 02:59:30;;;;;;;44.77;16.00;;;-3275.20;75.10;;;;;;5063942;28;20500;-91
2021/12/28 03:01:56;;;;;;;;;;;-3275.10;75.10;;;;;;5083442;28;20092;-92
2021/12/28 03:04:24;;;;;;;41.50;13.90;;;-3275.20;75.20;;;;;;5080868;28;20353;-92
2021/12/28 03:06:50;;;;;;;42.17;15.50;;;-3275.20;75.00;;;;;;5080652;28;20025;-92
2021/12/28 03:09:18;;;;;;;;;;;-3275.10;75.10;;;;;;5081187;28;20074;-92
2021/12/28 03:11:44;;;;;;;36.97;14.47;;;-3275.10;75.20;;;;;;5081207;28;19916;-92
2021/12/28 03:14:10;;;;;;;;;;;-3275.20;75.00;;;;;;5082532;28;20017;-93
2021/12/28 03:16:35;;;;;;;33.10;12.83;;;-3275.10;75.10;;;;;;5081506;28;19909;-93
2021/12/28 03:19:01;;;;;;;;;;;-3275.20;74.90;;;;;;5082270;28;20028;-92
2021/12/28 03:21:27;;;;;;;42.90;14.77;;;-3275.10;75.00;;;;;;5080496;28;20430;-92
2021/12/28 03:23:54;;;;;;;44.08;15.43;;;-3275.10;74.80;;;;;;5080035;28;20031;-91
2021/12/28 03:26:20;;;;;;;19.77;8.37;;;-3275.00;75.00;;;;;;5081879;28;20028;-92
2021/12/28 03:28:47;;;;;;;43.87;16.07;;;-3275.00;75.10;;;;;;5064258;28;20037;-91
2021/12/28 03:31:18;;;;;;;39.57;15.73;;;-3275.00;75.20;;;;;;5081056;28;20024;-92
2021/12/28 03:33:46;;;;;;;37.37;14.37;;;-3275.00;75.20;;;;;;5080481;28;20024;-92
2021/12/28 03:36:14;;;;;;;38.40;15.10;;;-3275.10;75.20;;;;;;5072782;28;20020;-92
2021/12/28 03:38:41;;;;;;;36.17;13.50;;;-3275.10;75.20;;;;;;5081055;28;20499;-90
2021/12/28 03:41:09;;;;;;;23.33;8.27;;;-3275.00;75.20;;;;;;5080679;28;20040;-91
2021/12/28 03:43:36;;;;;;;35.67;14.40;;;-3275.10;75.10;;;;;;5080889;28;20021;-91
2021/12/28 03:46:03;;;;;;;23.40;10.53;;;-3275.10;75.10;;;;;;5080398;28;20023;-92
2021/12/28 03:48:28;;;;;;;45.40;15.27;;;-3275.10;75.10;;;;;;5081040;28;20044;-92
2021/12/28 03:50:57;;;;;;;;;;;-3275.10;75.00;;;;;;5081255;28;20024;-92
2021/12/28 03:53:22;;;;;;;15.83;6.13;;;-3275.10;75.10;;;;;;5080766;28;19912;-92
2021/12/28 03:55:48;;;;;;;;;;;-3275.00;74.90;;;;;;5080315;28;20103;-92
2021/12/28 03:58:14;;;;;;;23.07;9.27;;;-3275.10;75.00;;;;;;5080877;28;19920;-92
2021/12/28 04:00:44;;;;;;;;;;;-3275.10;74.80;;;;;;5080472;28;20037;-92
2021/12/28 04:03:10;;;;;;;36.60;13.13;;;-3275.10;74.90;;;;;;5079856;28;20315;-92
2021/12/28 04:05:36;;;;;;;30.47;13.53;;;-3275.10;74.80;;;;;;5079550;28;20012;-92
2021/12/28 04:08:02;;;;;;;39.50;15.27;;;-3275.00;74.90;;;;;;5079850;28;20028;-92
2021/12/28 04:10:31;;;;;;;;;;;-3275.00;75.00;;;;;;5080299;28;20370;-92
2021/12/28 04:12:57;;;;;;;34.73;14.47;;;-3275.10;75.10;;;;;;5081062;28;19908;-92
2021/12/28 04:15:23;;;;;;;;;;;-3275.10;74.90;;;;;;5081097;28;20012;-92
2021/12/28 04:17:49;;;;;;;24.50;9.33;;;-3275.10;75.00;;;;;;5080057;28;20029;-92
2021/12/28 04:20:16;;;;;;;;;;;-3275.10;74.90;;;;;;5080638;28;20070;-92
2021/12/28 04:22:42;;;;;;;16.13;7.47;;;-3275.10;74.90;;;;;;5080963;28;20377;-93
2021/12/28 04:25:09;;;;;;;;;;;-3275.10;74.70;;;;;;5080894;28;20029;-92
2021/12/28 04:27:35;;;;;;;13.82;5.75;;;-3275.00;74.80;;;;;;5084046;28;19909;-91
2021/12/28 04:30:00;;;;;;;;;;;-3275.00;74.70;;;;;;5081648;28;20017;-92
2021/12/28 04:32:26;;;;;;;29.13;11.70;;;-3275.00;74.80;;;;;;5080386;28;19966;-92
2021/12/28 04:34:52;;;;;;;;;;;-3275.00;74.70;;;;;;5081650;28;20082;-92
2021/12/28 04:37:18;;;;;;;37.27;14.20;;;-3275.00;74.90;;;;;;5080959;28;19912;-92
2021/12/28 04:39:46;;;;;;;;;;;-3275.00;74.90;;;;;;5081589;28;20109;-92
2021/12/28 04:42:12;;;;;;;19.83;7.63;;;-3275.00;75.10;;;;;;5080539;28;19899;-92
2021/12/28 04:44:37;;;;;;;;;;;-3275.00;74.90;;;;;;5080390;28;20016;-93
2021/12/28 04:47:06;;;;;;;36.53;13.47;;;-3275.00;75.00;;;;;;5079854;28;20281;-93
2021/12/28 04:49:36;;;;;;;34.00;13.57;;;-3275.00;74.90;;;;;;5078930;28;20025;-92
2021/12/28 04:52:04;;;;;;;28.90;11.33;;;-3275.00;75.00;;;;;;5079255;28;20039;-92
2021/12/28 04:54:30;;;;;;;38.03;15.20;;;-3275.00;75.10;;;;;;5078889;28;20020;-89
2021/12/28 04:56:55;;;;;;;;;;;-3275.00;75.10;;;;;;5079763;28;20025;-92
2021/12/28 04:59:21;;;;;;;37.13;13.77;;;-3275.00;75.20;;;;;;5095945;28;19908;-91
2021/12/28 05:01:47;;;;;;;21.23;9.80;;;-3275.10;74.90;;;;;;5078888;28;20020;-91
2021/12/28 05:04:13;;;;;;;;;;;-3275.10;75.00;;;;;;5079355;28;20032;-92
2021/12/28 05:06:41;;;;;;;30.20;12.17;;;-3275.10;75.00;;;;;;5078855;28;19958;-92
2021/12/28 05:09:10;;;;;;;16.40;7.70;;;-3275.00;74.80;;;;;;5079152;28;20024;-92
2021/12/28 05:11:36;;;;;;;32.13;13.97;;;-3275.00;74.90;;;;;;5078190;28;20029;-93
2021/12/28 05:14:04;;;;;;;18.40;8.60;;;-3275.00;74.90;;;;;;5078558;28;20058;-92
2021/12/28 05:16:33;;;;;;;19.43;8.37;;;-3275.00;75.00;;;;;;5078852;28;20036;-92
2021/12/28 05:18:59;;;;;;;28.63;11.10;;;-3275.00;75.00;;;;;;5078994;28;20095;-93
2021/12/28 05:21:25;;;;;;;;;;;-3275.00;75.00;;;;;;5079782;28;20036;-92
2021/12/28 05:23:51;;;;;;;39.60;13.87;;;-3274.90;75.00;;;;;;5078121;28;19955;-92
2021/12/28 05:26:16;;;;;;;;;;;-3274.90;74.80;;;;;;5079641;28;20001;-93
2021/12/28 05:28:42;;;;;;;28.77;12.50;;;-3275.00;75.00;;;;;;5078118;28;19912;-91
2021/12/28 05:31:08;;;;;;;;;;;-3275.00;74.90;;;;;;5077498;28;20040;-93
2021/12/28 05:33:34;;;;;;;37.40;14.00;;;-3275.00;75.00;;;;;;5078962;28;19931;-93
2021/12/28 05:35:59;;;;;;;29.35;12.63;;;-3275.00;74.80;;;;;;5079364;28;20044;-93
2021/12/28 05:38:25;;;;;;;;;;;-3275.00;74.90;;;;;;5079976;28;20025;-92
2021/12/28 05:40:51;;;;;;;29.43;12.23;;;-3275.00;75.10;;;;;;5082848;28;19912;-92
2021/12/28 05:43:16;;;;;;;;;;;-3275.00;74.90;;;;;;5085477;28;20036;-93
2021/12/28 05:45:45;;;;;;;37.70;13.03;;;-3275.00;75.00;;;;;;5086864;28;19968;-93
2021/12/28 05:48:11;;;;;;;33.50;13.50;;;-3275.00;74.80;;;;;;5090264;28;20028;-92
2021/12/28 05:50:37;;;;;;;;;;;-3275.00;74.90;;;;;;5085373;28;20397;-93
2021/12/28 05:53:03;;;;;;;31.30;11.87;;;-3275.00;75.00;;;;;;5086872;28;19916;-93
2021/12/28 05:55:29;;;;;;;36.77;16.40;;;-3275.00;74.80;;;;;;5092126;28;20028;-91
2021/12/28 05:57:54;;;;;;;;;;;-3275.00;74.90;;;;;;5096031;28;20028;-90
2021/12/28 06:00:23;;;;;;;35.80;16.37;;;-3275.00;75.10;;;;;;5096775;28;19904;-91
2021/12/28 06:02:49;;;;;;;14.60;7.50;;;-3275.00;74.90;;;;;;5095918;28;20017;-91
2021/12/28 06:05:15;;;;;;;;;;;-3274.90;74.90;;;;;;5096766;28;20017;-91
2021/12/28 06:07:40;;;;;;;28.23;9.63;;;-3274.90;75.00;;;;;;5096472;28;19908;-92
2021/12/28 06:10:07;;;;;;;;;;;-3274.90;74.90;;;;;;5086540;28;20143;-89
2021/12/28 06:12:33;;;;;;;27.40;11.60;;;-3274.80;75.00;;;;;;5082112;28;19909;-91
2021/12/28 06:14:58;;;;;;;;;;;-3274.80;74.90;;;;;;5081275;28;20035;-91
2021/12/28 06:17:24;;;;;;;26.80;10.77;;;-3274.80;75.10;;;;;;5080663;28;19924;-92
2021/12/28 06:19:49;;;;;;;;;;;-3274.80;75.00;;;;;;5081081;28;20024;-93
2021/12/28 06:22:15;;;;;;;33.00;12.97;;;-3274.80;75.20;;;;;;5079748;28;19919;-93
2021/12/28 06:24:40;;;;;;;39.33;13.73;;;-3274.70;75.10;;;;;;5080079;28;20039;-93
2021/12/28 06:27:06;;;;;;;;;;;-3274.70;75.30;;;;;;5079666;28;20028;-93
2021/12/28 06:29:32;;;;;;;35.27;13.97;;;-3274.80;75.40;;;;;;5080543;28;19950;-91
2021/12/28 06:31:57;;;;;;;;;;;-3274.80;75.30;;;;;;5082597;28;20058;-92
2021/12/28 06:34:23;;;;;;;35.37;12.97;;;-3274.80;75.30;;;;;;5083583;28;19908;-91
2021/12/28 06:36:48;;;;;;;;;;;-3274.90;75.20;;;;;;5082105;28;20023;-85
2021/12/28 06:39:14;;;;;;;32.80;12.70;;;-3274.90;75.30;;;;;;5080021;28;19915;-87
2021/12/28 06:41:40;;;;;;;;;;;-3275.00;75.10;;;;;;5079574;28;20039;-85
2021/12/28 06:44:09;;;;;;;31.33;12.40;;;-3275.00;75.20;;;;;;5079523;28;19936;-84
2021/12/28 06:46:36;;;;;;;19.17;6.97;;;-3274.90;75.00;;;;;;5078025;28;20021;-84
2021/12/28 06:49:08;;;;;;;23.37;9.93;;;-3275.00;75.20;;;;;;5079344;28;20091;-84
2021/12/28 06:51:36;;;;;;;31.67;12.60;;;-3274.90;75.20;;;;;;5047776;28;20033;-84
2021/12/28 06:54:02;;;;;;;32.87;13.67;;;-3274.90;75.30;;;;;;5077774;28;20024;-86
2021/12/28 06:56:28;;;;;;;;;;;-3275.00;75.30;;;;;;5080062;28;20025;-84
2021/12/28 06:58:53;;;;;;;35.40;14.47;;;-3274.90;75.40;;;;;;5080248;28;19915;-86
2021/12/28 07:01:19;;;;;;;35.17;13.73;;;-3275.00;75.20;;;;;;5078689;28;20044;-86
2021/12/28 07:03:48;;;;;;;;;;;-3275.00;75.30;;;;;;5078959;28;20104;-85
2021/12/28 07:06:16;;;;;;;34.77;13.90;;;-3275.00;75.30;;;;;;5077109;28;19915;-86
2021/12/28 07:08:42;;;;;;;30.43;13.20;;;-3275.00;75.10;;;;;;5077178;28;20028;-85
2021/12/28 07:11:08;;;;;;;27.20;13.20;;;-3275.00;75.20;;;;;;5076862;28;20047;-83
2021/12/28 07:13:34;;;;;;;;;;;-3275.00;75.20;;;;;;5077176;28;20477;-85
2021/12/28 07:15:59;;;;;;;25.83;11.20;;;-3275.10;75.30;;;;;;5089397;28;19909;-87
2021/12/28 07:18:25;;;;;;;;;;;-3275.00;75.00;;;;;;5080373;28;20020;-87
2021/12/28 07:20:51;;;;;;;25.67;11.83;;;-3275.10;75.20;;;;;;5078823;28;19915;-87
2021/12/28 07:23:16;;;;;;;;;;;-3275.10;75.00;;;;;;5079632;28;20016;-87
2021/12/28 07:25:42;;;;;;;21.73;10.80;;;-3275.10;75.10;;;;;;5078643;28;19908;-87
2021/12/28 07:28:07;;;;;;;;;;;-3275.10;75.00;;;;;;5079989;28;20013;-87
2021/12/28 07:30:34;;;;;;;17.50;5.43;;;-3275.20;75.10;;;;;;5079773;28;19912;-86
2021/12/28 07:33:00;;;;;;;18.87;8.63;;;-3275.20;74.90;;;;;;5079049;28;20020;-86
2021/12/28 07:35:26;;;;;;;;;;;-3275.10;74.90;;;;;;5079801;28;20082;-86
2021/12/28 07:37:53;;;;;;;29.17;11.20;;;-3275.10;75.00;;;;;;5079507;28;20003;-88
2021/12/28 07:40:19;;;;;;;26.47;12.23;;;-3275.10;74.90;;;;;;5079605;28;20347;-88
2021/12/28 07:42:44;;;;;;;33.17;12.43;;;-3275.10;75.00;;;;;;5078753;28;20385;-86
2021/12/28 07:45:11;;;;;;;;;;;-3275.10;75.20;;;;;;5078791;28;20024;-87
2021/12/28 07:47:37;;;;;;;19.70;9.00;;;-3275.20;75.20;;;;;;5083994;28;19955;-88
2021/12/28 07:50:06;;;;;;;29.90;12.53;;;-3275.20;75.00;;;;;;5079168;28;20071;-88
2021/12/28 07:52:31;;;;;;;31.83;14.03;;;-3275.30;75.00;;;;;;5078167;28;20021;-87
2021/12/28 07:54:57;;;;;;;;;;;-3275.30;75.00;;;;;;5079756;28;20080;-88
2021/12/28 07:57:22;;;;;;;35.60;13.17;;;-3275.40;75.10;;;;;;5078370;28;19909;-87
2021/12/28 07:59:48;;;;;;;;;;;-3275.50;74.80;;;;;;5078163;28;20024;-88
2021/12/28 08:02:14;;;;;;;25.37;12.10;;;-3275.50;74.90;;;;;;5078929;28;19916;-84
2021/12/28 08:04:39;;;;;;;35.83;12.95;;;-3275.50;74.60;;;;;;5075951;28;20111;-83
2021/12/28 08:07:05;;;;;;;;;;;-3275.50;74.60;;;;;;5076232;28;20035;-84
2021/12/28 08:09:30;;;;;;;26.40;10.83;;;-3275.50;74.70;;;;;;5075347;28;19961;-84
2021/12/28 08:11:56;;;;;;;;;;;-3275.60;74.40;;;;;;5076686;28;20025;-86
2021/12/28 08:14:21;;;;;;;16.73;7.50;;;-3275.50;74.60;;;;;;5078579;28;19912;-87
2021/12/28 08:16:48;;;;;;;;;;;-3275.50;74.40;;;;;;5078400;28;20473;-83
2021/12/28 08:19:14;;;;;;;21.27;9.20;;;-3275.50;74.50;;;;;;5078295;28;19908;-87
2021/12/28 08:21:39;;;;;;;;;;;-3275.50;74.30;;;;;;5077795;28;20024;-87
2021/12/28 08:24:05;;;;;;;30.57;11.73;;;-3275.50;74.40;;;;;;5078131;28;19967;-87
2021/12/28 08:26:31;;;;;;;;;;;-3275.50;74.30;;;;;;5079212;28;20021;-86
2021/12/28 08:28:57;;;;;;;22.80;9.27;;;-3275.60;74.50;;;;;;5079472;28;19904;-86
2021/12/28 08:31:22;;;;;;;;;;;-3275.60;74.20;;;;;;5079362;28;20031;-86
2021/12/28 08:33:48;;;;;;;33.60;13.33;;;-3275.60;74.30;;;;;;5077865;28;19958;-86
2021/12/28 08:36:19;;;;;;;38.75;13.43;;;-3275.60;74.20;;;;;;5084384;28;20024;-85
2021/12/28 08:38:45;;;;;;;30.40;11.93;;;-3275.60;74.30;;;;;;5076608;28;20024;-84
2021/12/28 08:41:11;;;;;;;;;;;-3275.60;74.40;;;;;;5075951;28;20384;-85
2021/12/28 08:43:37;;;;;;;36.17;14.13;;;-3275.70;74.50;;;;;;5075673;28;19955;-85
2021/12/28 08:46:03;;;;;;;;;;;-3275.70;74.30;;;;;;5075747;28;20051;-85
2021/12/28 08:48:28;;;;;;;34.63;12.87;;;-3275.80;74.40;;;;;;5074491;28;19908;-84
2021/12/28 08:50:54;;;;;;;33.60;14.70;;;-3275.80;74.10;;;;;;5075988;28;20461;-85
2021/12/28 08:53:19;;;;;;;;;;;-3275.90;74.20;;;;;;5074979;28;20420;-83
2021/12/28 08:55:46;;;;;;;26.60;9.87;;;-3275.90;74.30;;;;;;5073323;28;19947;-82
2021/12/28 08:58:13;;;;;;;34.27;14.40;;;-3276.00;74.00;;;;;;5073754;28;20024;-82
2021/12/28 09:00:39;;;;;;;35.37;15.50;;;-3276.00;74.00;;;;;;5073984;28;20443;-82
2021/12/28 09:03:05;;;;;;;29.37;13.90;;;-3276.10;74.00;;;;;;5074328;28;20028;-82
2021/12/28 09:05:30;;;;;;;;;;;-3276.20;74.00;;;;;;5074407;28;20329;-83
2021/12/28 09:07:57;;;;;;;28.87;10.87;;;-3276.20;74.00;;;;;;5074203;28;19905;-83
2021/12/28 09:10:26;;;;;;;28.63;13.20;;;-3276.30;73.80;;;;;;5073634;28;20401;-82
2021/12/28 09:12:54;;;;;;;30.57;12.70;;;-3276.30;73.50;;;;;;5074172;28;20012;-83
2021/12/28 09:15:19;;;;;;;26.27;12.53;;;-3276.30;73.60;;;;;;5074108;28;20074;-83
2021/12/28 09:17:45;;;;;;;;;;;-3276.30;73.40;;;;;;5074597;28;20404;-83
2021/12/28 09:20:15;;;;;;;15.93;8.30;;;-3276.30;73.30;;;;;;5079361;28;20329;-83
2021/12/28 09:22:40;;;;;;;27.37;12.17;;;-3276.30;73.00;;;;;;5078381;28;20028;-87
2021/12/28 09:25:06;;;;;;;;;;;-3276.20;73.10;;;;;;5077532;28;20032;-86
2021/12/28 09:27:32;;;;;;;32.43;14.03;;;-3276.20;73.30;;;;;;5076827;28;19888;-85
2021/12/28 09:29:58;;;;;;;;;;;-3276.20;73.10;;;;;;5078958;28;20028;-90
2021/12/28 09:32:23;;;;;;;39.10;14.10;;;-3276.20;73.30;;;;;;5078549;28;19912;-89
2021/12/28 09:34:50;;;;;;;;;;;-3276.20;73.00;;;;;;5079599;28;20028;-89
2021/12/28 09:37:17;;;;;;;24.38;11.90;;;-3276.20;73.20;;;;;;5078812;28;19916;-90
2021/12/28 09:39:42;;;;;;;40.10;14.77;;;-3276.20;72.90;;;;;;5078096;28;20020;-89
2021/12/28 09:42:08;;;;;;;;;;;-3276.20;73.00;;;;;;5078891;28;20373;-90
2021/12/28 09:44:34;;;;;;;34.47;12.93;;;-3276.20;73.20;;;;;;5079851;28;19916;-91
2021/12/28 09:47:02;;;;;;;26.73;11.63;;;-3276.20;73.00;;;;;;5070461;28;20107;-91
2021/12/28 09:49:28;;;;;;;29.63;12.07;;;-3276.20;73.10;;;;;;5077700;28;20036;-90
2021/12/28 09:51:54;;;;;;;;;;;-3276.20;73.10;;;;;;5077833;28;20039;-91
2021/12/28 09:54:24;;;;;;;37.70;15.90;;;-3276.30;73.20;;;;;;5078680;28;19912;-90
2021/12/28 09:56:49;;;;;;;40.17;17.13;;;-3276.30;72.80;;;;;;5077513;28;20039;-91
2021/12/28 09:59:15;;;;;;;;;;;-3276.30;72.90;;;;;;5079505;28;20033;-92
2021/12/28 10:01:40;;;;;;;40.17;15.63;;;-3276.40;73.00;;;;;;5079542;28;19915;-91
2021/12/28 10:04:06;;;;;;;;;;;-3276.50;72.70;;;;;;5079647;28;20021;-90
2021/12/28 10:06:31;;;;;;;32.17;13.93;;;-3276.60;72.90;;;;;;5078970;28;19916;-90
2021/12/28 10:09:10;;;;;;;35.40;14.27;;;-3276.60;72.60;;;;;;5079111;28;20052;-89
2021/12/28 10:11:42;;;;;;;34.90;13.33;;;-3276.60;72.60;;;;;;5077635;28;20025;-90
2021/12/28 10:14:26;;;;;;;16.83;7.63;;;-3276.70;72.30;;;;;;5076753;28;20124;-91
2021/12/28 10:16:56;;;;;;;25.20;10.13;;;-3276.60;72.10;;;;;;5077674;28;20024;-90
2021/12/28 10:19:47;;;;;;;29.57;12.57;;;-3276.60;71.90;;;;;;5079096;28;20051;-91
2021/12/28 10:22:33;;;;;;;29.87;12.60;;;-3276.60;72.00;;;;;;5075373;28;20393;-89
2021/12/28 10:25:12;;;;;;;25.63;9.33;;;-3276.70;72.00;;;;;;5080012;28;20044;-89
2021/12/28 10:27:40;;;;;;;30.87;15.00;;;-3276.70;72.00;;;;;;5080292;28;20021;-90
2021/12/28 10:30:26;;;;;;;30.50;13.00;;;0.00;71.80;;;;;;5085931;28;20066;-89
2021/12/28 10:33:04;;;;;;;33.83;15.07;;;0.00;71.70;;;;;;5087490;28;20405;-90
2021/12/28 10:35:50;;;;;;;42.53;16.17;;;0.00;71.80;;;;;;5079623;28;20036;-90
2021/12/28 10:38:19;;;;;;;26.65;12.32;;;0.00;71.70;;;;;;5089124;28;20049;-91
2021/12/28 10:40:51;;;;;;;40.80;15.20;;;0.00;71.70;;;;;;5090348;28;20019;-91
2021/12/28 10:43:23;;;;;;;37.97;14.77;;;0.00;71.60;;;;;;5088775;28;20035;-90
2021/12/28 10:46:01;;;;;;;43.00;17.83;;;0.00;71.70;;;;;;5096560;28;20066;-90
2021/12/28 10:48:38;;;;;;;35.23;13.57;;;0.00;71.60;;;;;;5088873;28;20072;-90
2021/12/28 10:51:05;;;;;;;;;;;0.00;71.50;;;;;;5097460;28;20059;-87
2021/12/28 10:53:44;;;;;;;40.57;14.83;;;0.00;71.40;;;;;;5096967;28;19908;-91
2021/12/28 10:56:11;;;;;;;42.17;17.23;;;0.00;71.10;;;;;;5095367;28;20013;-91
2021/12/28 10:58:41;;;;;;;39.73;16.57;;;0.00;71.30;;;;;;5084947;28;20047;-92
2021/12/28 11:01:15;;;;;;;45.53;18.43;;;0.10;71.30;;;;;;5083172;28;20020;-90
2021/12/28 11:03:44;;;;;;;49.77;20.60;;;0.10;71.20;;;;;;5081594;28;20028;-91
2021/12/28 11:06:21;;;;;;;41.03;18.50;;;0.20;71.30;;;;;;5083602;28;20012;-92
2021/12/28 11:08:49;;;;;;;55.40;21.13;;;0.30;71.30;;;;;;5082279;28;20031;-92
2021/12/28 11:11:18;;;;;;;60.30;21.30;;;0.30;71.30;;;;;;5081074;28;20044;-90
2021/12/28 11:13:44;;;;;;;55.07;21.20;;;0.40;71.20;;;;;;5081041;28;20482;-90
2021/12/28 11:16:11;;;;;;;;;;;0.40;71.20;;;;;;5081243;28;20028;-92
2021/12/28 11:18:44;;;;;;;55.97;21.95;;;0.60;71.20;;;;;;5100215;28;19915;-91
2021/12/28 11:21:11;;;;;;;53.73;21.40;;;0.80;70.60;;;;;;5084315;28;20022;-83
2021/12/28 11:23:38;;;;;;;51.83;20.73;;;0.80;70.50;;;;;;5077254;28;20055;-83
2021/12/28 11:26:15;;;;;;;47.43;18.00;;;0.90;70.60;;;;;;5076358;28;20025;-83
2021/12/28 11:28:43;;;;;;;38.90;15.90;;;1.10;70.40;;;;;;5076658;28;20024;-83
2021/12/28 11:31:18;;;;;;;60.17;22.33;;;1.20;70.20;;;;;;5078507;28;20028;-84
2021/12/28 11:34:03;;;;;;;49.70;19.77;;;1.20;69.90;;;;;;5070734;28;20020;-83
2021/12/28 11:36:38;;;;;;;54.97;21.80;;;1.20;69.90;;;;;;5077338;28;20024;-84
2021/12/28 11:39:09;;;;;;;57.37;22.83;;;1.20;69.70;;;;;;5077228;28;20503;-83
2021/12/28 11:41:35;;;;;;;44.30;17.37;;;1.20;69.70;;;;;;5077211;28;20115;-82
2021/12/28 11:44:00;;;;;;;;;;;1.10;69.50;;;;;;5060888;28;20464;-83
2021/12/28 11:46:27;;;;;;;53.63;20.43;;;1.10;69.40;;;;;;5093361;28;19990;-84
2021/12/28 11:48:52;;;;;;;49.03;18.70;;;1.00;69.30;;;;;;5077670;28;20020;-83
2021/12/28 11:51:20;;;;;;;;;;;1.10;69.50;;;;;;5078348;28;20058;-84
2021/12/28 11:53:47;;;;;;;53.92;22.30;;;1.10;69.50;;;;;;5079379;28;20003;-83
2021/12/28 11:56:15;;;;;;;56.20;21.40;;;1.10;69.30;;;;;;5077286;28;20044;-83
2021/12/28 11:59:04;;;;;;;50.53;19.33;;;1.10;69.40;;;;;;5076570;28;20032;-82
2021/12/28 12:01:47;;;;;;;33.30;14.00;;;1.10;69.40;;;;;;5078085;28;20028;-84
2021/12/28 12:04:31;;;;;;;44.30;18.57;;;1.10;69.40;;;;;;5070241;28;20028;-83
2021/12/28 12:06:57;;;;;;;48.57;20.17;;;1.00;69.20;;;;;;5080280;28;20017;-84
2021/12/28 12:09:22;;;;;;;;;;;1.00;69.30;;;;;;5075473;28;20024;-83
2021/12/28 12:12:10;;;;;;;49.27;20.70;;;1.00;69.50;;;;;;5075013;28;20365;-84
2021/12/28 12:14:55;;;;;;;48.77;19.93;;;1.00;69.30;;;;;;5075228;28;20050;-85
2021/12/28 12:17:40;;;;;;;51.07;20.27;;;1.00;69.20;;;;;;5075536;28;20021;-84
2021/12/28 12:20:34;;;;;;;50.83;19.57;;;1.00;69.30;;;;;;5067204;28;20032;-84
2021/12/28 12:23:18;;;;;;;28.97;12.60;;;1.00;69.20;;;;;;5074306;28;20056;-84
2021/12/28 12:25:58;;;;;;;38.53;16.63;;;1.00;69.10;;;;;;5075102;28;20032;-84
2021/12/28 12:28:35;;;;;;;43.10;16.10;;;1.00;69.10;;;;;;5075005;28;20029;-83
2021/12/28 12:31:03;;;;;;;44.80;18.67;;;0.90;68.90;;;;;;5072550;28;20028;-83
2021/12/28 12:33:42;;;;;;;45.10;18.50;;;0.80;69.00;;;;;;5073212;28;20040;-85
2021/12/28 12:36:17;;;;;;;42.53;15.87;;;0.80;69.10;;;;;;5074232;28;20028;-84
2021/12/28 12:38:44;;;;;;;48.37;20.10;;;0.90;69.10;;;;;;5074081;28;20020;-85